sensor_id;sensor_type;location;lat;lon;timestamp;pressure;altitude;pressure_sealevel;temperature;humidity
46778;BME280;32536;47.128;8.746;2023-04-12T00:00:50;91206.69;;;9.75;54.85
46778;BME280;32536;47.128;8.746;2023-04-12T00:03:17;91194.75;;;9.80;54.95
46778;BME280;32536;47.128;8.746;2023-04-12T00:05:45;91174.81;;;9.84;54.69
46778;BME280;32536;47.128;8.746;2023-04-12T00:08:13;91169.88;;;9.83;54.69
46778;BME280;32536;47.128;8.746;2023-04-12T00:10:44;91166.09;;;9.80;54.92
46778;BME280;32536;47.128;8.746;2023-04-12T00:13:10;91158.75;;;9.84;54.81
46778;BME280;32536;47.128;8.746;2023-04-12T00:15:37;91153.78;;;9.86;55.10
46778;BME280;32536;47.128;8.746;2023-04-12T00:18:04;91151.78;;;9.90;55.15
46778;BME280;32536;47.128;8.746;2023-04-12T00:20:31;91156.69;;;9.92;54.93
46778;BME280;32536;47.128;8.746;2023-04-12T00:22:57;91145.94;;;9.96;54.96
46778;BME280;32536;47.128;8.746;2023-04-12T00:25:24;91145.19;;;9.95;55.18
46778;BME280;32536;47.128;8.746;2023-04-12T00:27:51;91155.81;;;9.99;55.64
46778;BME280;32536;47.128;8.746;2023-04-12T00:30:17;91141.22;;;10.03;55.38
46778;BME280;32536;47.128;8.746;2023-04-12T00:32:44;91141.13;;;10.07;55.09
46778;BME280;32536;47.128;8.746;2023-04-12T00:35:12;91138.28;;;10.14;54.87
46778;BME280;32536;47.128;8.746;2023-04-12T00:37:38;91127.44;;;10.21;55.27
46778;BME280;32536;47.128;8.746;2023-04-12T00:40:07;91134.25;;;10.26;55.08
46778;BME280;32536;47.128;8.746;2023-04-12T00:42:37;91124.56;;;10.32;54.83
46778;BME280;32536;47.128;8.746;2023-04-12T00:45:04;91129.09;;;10.35;54.47
46778;BME280;32536;47.128;8.746;2023-04-12T00:47:34;91115.97;;;10.41;54.63
46778;BME280;32536;47.128;8.746;2023-04-12T00:50:03;91095.25;;;10.45;54.45
46778;BME280;32536;47.128;8.746;2023-04-12T00:52:34;91077.31;;;10.42;54.29
46778;BME280;32536;47.128;8.746;2023-04-12T00:55:02;91069.50;;;10.31;54.69
46778;BME280;32536;47.128;8.746;2023-04-12T00:57:33;91069.91;;;10.30;55.25
46778;BME280;32536;47.128;8.746;2023-04-12T01:00:05;91062.97;;;10.32;54.83
46778;BME280;32536;47.128;8.746;2023-04-12T01:02:35;91049.13;;;10.37;54.71
46778;BME280;32536;47.128;8.746;2023-04-12T01:05:04;91036.84;;;10.40;54.62
46778;BME280;32536;47.128;8.746;2023-04-12T01:07:43;91036.84;;;10.40;55.66
46778;BME280;32536;47.128;8.746;2023-04-12T01:13:33;91018.34;;;10.46;56.23
46778;BME280;32536;47.128;8.746;2023-04-12T01:22:10;90991.56;;;10.46;55.21
46778;BME280;32536;47.128;8.746;2023-04-12T01:25:14;90997.34;;;10.44;54.82
46778;BME280;32536;47.128;8.746;2023-04-12T01:27:59;90988.13;;;10.45;54.21
46778;BME280;32536;47.128;8.746;2023-04-12T01:30:28;90982.78;;;10.45;54.45
46778;BME280;32536;47.128;8.746;2023-04-12T01:32:59;90984.38;;;10.43;55.03
46778;BME280;32536;47.128;8.746;2023-04-12T01:35:30;90983.59;;;10.42;55.17
46778;BME280;32536;47.128;8.746;2023-04-12T01:37:58;90973.66;;;10.43;54.62
46778;BME280;32536;47.128;8.746;2023-04-12T01:40:29;90969.81;;;10.44;54.89
46778;BME280;32536;47.128;8.746;2023-04-12T01:43:06;90966.72;;;10.45;55.41
46778;BME280;32536;47.128;8.746;2023-04-12T01:45:35;90966.63;;;10.49;54.88
46778;BME280;32536;47.128;8.746;2023-04-12T01:48:04;90957.53;;;10.46;55.09
46778;BME280;32536;47.128;8.746;2023-04-12T01:51:05;90963.69;;;10.43;55.71
46778;BME280;32536;47.128;8.746;2023-04-12T01:53:48;90951.06;;;10.44;54.82
46778;BME280;32536;47.128;8.746;2023-04-12T01:56:18;90949.88;;;10.45;55.07
46778;BME280;32536;47.128;8.746;2023-04-12T01:58:47;90935.31;;;10.46;54.49
46778;BME280;32536;47.128;8.746;2023-04-12T02:01:17;90933.16;;;10.40;55.11
46778;BME280;32536;47.128;8.746;2023-04-12T02:03:44;90931.66;;;10.39;54.69
46778;BME280;32536;47.128;8.746;2023-04-12T02:06:15;90935.09;;;10.40;55.14
46778;BME280;32536;47.128;8.746;2023-04-12T02:09:16;90942.38;;;10.39;56.11
46778;BME280;32536;47.128;8.746;2023-04-12T02:11:46;90933.16;;;10.40;55.27
46778;BME280;32536;47.128;8.746;2023-04-12T02:14:14;90925.13;;;10.40;54.97
46778;BME280;32536;47.128;8.746;2023-04-12T02:16:40;90919.34;;;10.42;54.44
46778;BME280;32536;47.128;8.746;2023-04-12T02:19:09;90909.81;;;10.41;54.42
46778;BME280;32536;47.128;8.746;2023-04-12T02:21:40;90919.78;;;10.40;54.84
46778;BME280;32536;47.128;8.746;2023-04-12T02:24:09;90932.44;;;10.40;54.65
46778;BME280;32536;47.128;8.746;2023-04-12T02:26:37;90938.53;;;10.40;54.56
46778;BME280;32536;47.128;8.746;2023-04-12T02:29:04;90949.22;;;10.40;54.52
46778;BME280;32536;47.128;8.746;2023-04-12T02:31:32;90923.63;;;10.39;55.03
46778;BME280;32536;47.128;8.746;2023-04-12T02:34:00;90920.53;;;10.41;54.61
46778;BME280;32536;47.128;8.746;2023-04-12T02:36:27;90910.91;;;10.44;54.37
46778;BME280;32536;47.128;8.746;2023-04-12T02:38:54;90937.00;;;10.39;55.01
46778;BME280;32536;47.128;8.746;2023-04-12T02:41:22;90932.13;;;10.34;55.43
46778;BME280;32536;47.128;8.746;2023-04-12T02:43:49;90917.97;;;10.34;54.63
46778;BME280;32536;47.128;8.746;2023-04-12T02:46:22;90940.16;;;10.34;55.45
46778;BME280;32536;47.128;8.746;2023-04-12T02:48:50;90948.16;;;10.38;55.40
46778;BME280;32536;47.128;8.746;2023-04-12T02:51:16;90935.84;;;10.40;54.69
46778;BME280;32536;47.128;8.746;2023-04-12T02:53:43;90939.50;;;10.47;55.06
46778;BME280;32536;47.128;8.746;2023-04-12T02:56:10;90929.47;;;10.51;54.55
46778;BME280;32536;47.128;8.746;2023-04-12T02:58:37;90907.72;;;10.49;54.30
46778;BME280;32536;47.128;8.746;2023-04-12T03:01:04;90930.28;;;10.31;54.66
46778;BME280;32536;47.128;8.746;2023-04-12T03:03:33;90940.50;;;10.20;55.51
46778;BME280;32536;47.128;8.746;2023-04-12T03:06:00;90937.09;;;10.19;55.16
46778;BME280;32536;47.128;8.746;2023-04-12T03:08:27;90940.84;;;10.22;55.25
46778;BME280;32536;47.128;8.746;2023-04-12T03:10:54;90920.09;;;10.26;55.34
46778;BME280;32536;47.128;8.746;2023-04-12T03:13:21;90921.09;;;10.32;55.27
46778;BME280;32536;47.128;8.746;2023-04-12T03:15:48;90932.44;;;10.40;55.56
46778;BME280;32536;47.128;8.746;2023-04-12T03:18:19;90917.34;;;10.46;55.31
46778;BME280;32536;47.128;8.746;2023-04-12T03:20:45;90903.19;;;10.46;54.99
46778;BME280;32536;47.128;8.746;2023-04-12T03:23:13;90895.34;;;10.38;55.22
46778;BME280;32536;47.128;8.746;2023-04-12T03:25:39;90910.28;;;10.36;55.83
46778;BME280;32536;47.128;8.746;2023-04-12T03:28:07;90904.94;;;10.36;55.70
46778;BME280;32536;47.128;8.746;2023-04-12T03:30:34;90904.88;;;10.39;55.32
46778;BME280;32536;47.128;8.746;2023-04-12T03:33:01;90909.31;;;10.46;55.27
46778;BME280;32536;47.128;8.746;2023-04-12T03:35:27;90897.00;;;10.49;55.71
46778;BME280;32536;47.128;8.746;2023-04-12T03:37:54;90882.38;;;10.53;54.82
46778;BME280;32536;47.128;8.746;2023-04-12T03:40:20;90897.13;;;10.58;54.98
46778;BME280;32536;47.128;8.746;2023-04-12T03:42:47;90897.13;;;10.58;55.22
46778;BME280;32536;47.128;8.746;2023-04-12T03:45:14;90893.28;;;10.59;55.11
46778;BME280;32536;47.128;8.746;2023-04-12T03:47:41;90892.03;;;10.64;54.60
46778;BME280;32536;47.128;8.746;2023-04-12T03:50:08;90874.47;;;10.63;55.07
46778;BME280;32536;47.128;8.746;2023-04-12T03:52:35;90861.41;;;10.65;54.46
46778;BME280;32536;47.128;8.746;2023-04-12T03:55:02;90853.88;;;10.60;54.84
46778;BME280;32536;47.128;8.746;2023-04-12T03:57:30;90851.63;;;10.58;54.79
46778;BME280;32536;47.128;8.746;2023-04-12T03:59:57;90850.53;;;10.55;55.34
46778;BME280;32536;47.128;8.746;2023-04-12T04:02:26;90857.59;;;10.49;56.19
46778;BME280;32536;47.128;8.746;2023-04-12T04:04:53;90862.59;;;10.47;55.42
46778;BME280;32536;47.128;8.746;2023-04-12T04:07:20;90871.91;;;10.43;55.81
46778;BME280;32536;47.128;8.746;2023-04-12T04:09:47;90870.13;;;10.36;55.77
46778;BME280;32536;47.128;8.746;2023-04-12T04:12:14;90875.50;;;10.36;55.82
46778;BME280;32536;47.128;8.746;2023-04-12T04:17:26;90876.59;;;10.38;55.63
46778;BME280;32536;47.128;8.746;2023-04-12T04:19:53;90877.38;;;10.39;55.18
46778;BME280;32536;47.128;8.746;2023-04-12T04:22:20;90869.34;;;10.39;55.69
46778;BME280;32536;47.128;8.746;2023-04-12T04:24:47;90869.97;;;10.43;55.86
46778;BME280;32536;47.128;8.746;2023-04-12T04:27:14;90864.72;;;10.39;55.57
46778;BME280;32536;47.128;8.746;2023-04-12T04:29:41;90862.47;;;10.38;55.72
46778;BME280;32536;47.128;8.746;2023-04-12T04:32:11;90863.97;;;10.39;55.79
46778;BME280;32536;47.128;8.746;2023-04-12T04:34:38;90865.78;;;10.42;55.72
46778;BME280;32536;47.128;8.746;2023-04-12T04:37:04;90868.47;;;10.42;55.34
46778;BME280;32536;47.128;8.746;2023-04-12T04:39:32;90866.22;;;10.40;55.39
46778;BME280;32536;47.128;8.746;2023-04-12T04:41:58;90883.53;;;10.36;55.60
46778;BME280;32536;47.128;8.746;2023-04-12T04:44:25;90876.00;;;10.31;55.51
46778;BME280;32536;47.128;8.746;2023-04-12T04:46:52;90857.25;;;10.31;55.30
46778;BME280;32536;47.128;8.746;2023-04-12T04:49:18;90858.78;;;10.32;55.45
46778;BME280;32536;47.128;8.746;2023-04-12T04:51:45;90852.25;;;10.33;55.53
46778;BME280;32536;47.128;8.746;2023-04-12T04:54:12;90852.19;;;10.36;56.05
46778;BME280;32536;47.128;8.746;2023-04-12T04:56:38;90842.88;;;10.41;55.88
46778;BME280;32536;47.128;8.746;2023-04-12T04:59:05;90830.59;;;10.44;55.21
46778;BME280;32536;47.128;8.746;2023-04-12T05:01:32;90831.84;;;10.39;55.64
46778;BME280;32536;47.128;8.746;2023-04-12T05:04:01;90828.41;;;10.38;55.64
46778;BME280;32536;47.128;8.746;2023-04-12T05:06:29;90825.63;;;10.42;55.64
46778;BME280;32536;47.128;8.746;2023-04-12T05:09:26;90824.47;;;10.43;56.26
46778;BME280;32536;47.128;8.746;2023-04-12T05:11:53;90818.50;;;10.52;55.96
46778;BME280;32536;47.128;8.746;2023-04-12T05:14:19;90819.38;;;10.62;55.65
46778;BME280;32536;47.128;8.746;2023-04-12T05:16:46;90815.78;;;10.68;55.96
46778;BME280;32536;47.128;8.746;2023-04-12T05:19:13;90817.91;;;10.73;55.68
46778;BME280;32536;47.128;8.746;2023-04-12T05:21:40;90808.28;;;10.76;55.62
46778;BME280;32536;47.128;8.746;2023-04-12T05:24:06;90803.59;;;10.80;55.72
46778;BME280;32536;47.128;8.746;2023-04-12T05:26:33;90797.38;;;10.83;55.55
46778;BME280;32536;47.128;8.746;2023-04-12T05:29:00;90792.66;;;10.87;55.38
46778;BME280;32536;47.128;8.746;2023-04-12T05:31:27;90789.56;;;10.89;55.50
46778;BME280;32536;47.128;8.746;2023-04-12T05:33:53;90794.50;;;10.91;55.74
46778;BME280;32536;47.128;8.746;2023-04-12T05:36:20;90774.56;;;10.92;55.59
46778;BME280;32536;47.128;8.746;2023-04-12T05:38:47;90778.75;;;10.93;55.52
46778;BME280;32536;47.128;8.746;2023-04-12T05:41:13;90785.72;;;10.90;55.61
46778;BME280;32536;47.128;8.746;2023-04-12T05:43:40;90777.69;;;10.90;55.42
46778;BME280;32536;47.128;8.746;2023-04-12T05:46:07;90767.78;;;10.87;55.52
46778;BME280;32536;47.128;8.746;2023-04-12T05:48:34;90771.22;;;10.87;55.77
46778;BME280;32536;47.128;8.746;2023-04-12T05:51:01;90775.41;;;10.88;55.43
46778;BME280;32536;47.128;8.746;2023-04-12T05:53:30;90765.00;;;10.91;55.12
46778;BME280;32536;47.128;8.746;2023-04-12T05:55:57;90773.38;;;10.93;55.28
46778;BME280;32536;47.128;8.746;2023-04-12T05:58:24;90775.19;;;10.96;55.38
46778;BME280;32536;47.128;8.746;2023-04-12T06:00:51;90764.16;;;10.94;55.56
46778;BME280;32536;47.128;8.746;2023-04-12T06:03:21;90738.22;;;10.91;55.29
46778;BME280;32536;47.128;8.746;2023-04-12T06:05:51;90731.47;;;10.86;55.67
46778;BME280;32536;47.128;8.746;2023-04-12T06:08:18;90729.75;;;10.79;55.67
46778;BME280;32536;47.128;8.746;2023-04-12T06:10:45;90706.81;;;10.78;55.58
46778;BME280;32536;47.128;8.746;2023-04-12T06:13:11;90697.59;;;10.79;56.21
46778;BME280;32536;47.128;8.746;2023-04-12T06:15:38;90695.22;;;10.81;56.56
46778;BME280;32536;47.128;8.746;2023-04-12T06:18:08;90681.00;;;10.84;56.31
46778;BME280;32536;47.128;8.746;2023-04-12T06:20:38;90678.53;;;10.90;56.19
46778;BME280;32536;47.128;8.746;2023-04-12T06:23:05;90679.59;;;10.93;56.09
46778;BME280;32536;47.128;8.746;2023-04-12T06:25:32;90680.22;;;10.97;56.42
46778;BME280;32536;47.128;8.746;2023-04-12T06:27:59;90683.25;;;10.99;56.23
46778;BME280;32536;47.128;8.746;2023-04-12T06:30:26;90675.50;;;11.01;56.21
46778;BME280;32536;47.128;8.746;2023-04-12T06:32:52;90669.28;;;11.04;56.08
46778;BME280;32536;47.128;8.746;2023-04-12T06:35:19;90662.66;;;11.09;55.89
46778;BME280;32536;47.128;8.746;2023-04-12T06:37:47;90654.06;;;11.14;55.96
46778;BME280;32536;47.128;8.746;2023-04-12T06:40:14;90655.44;;;11.18;56.23
46778;BME280;32536;47.128;8.746;2023-04-12T06:42:41;90655.78;;;11.20;56.23
46778;BME280;32536;47.128;8.746;2023-04-12T06:45:08;90656.84;;;11.23;56.40
46778;BME280;32536;47.128;8.746;2023-04-12T06:47:35;90650.09;;;11.18;55.91
46778;BME280;32536;47.128;8.746;2023-04-12T06:50:02;90663.16;;;11.16;55.95
46778;BME280;32536;47.128;8.746;2023-04-12T06:52:31;90652.00;;;11.18;56.14
46778;BME280;32536;47.128;8.746;2023-04-12T06:54:58;90657.69;;;11.20;55.84
46778;BME280;32536;47.128;8.746;2023-04-12T06:57:25;90650.41;;;11.20;56.39
46778;BME280;32536;47.128;8.746;2023-04-12T06:59:51;90643.84;;;11.21;55.75
46778;BME280;32536;47.128;8.746;2023-04-12T07:02:18;90647.19;;;11.26;56.05
46778;BME280;32536;47.128;8.746;2023-04-12T07:04:45;90640.53;;;11.30;56.33
46778;BME280;32536;47.128;8.746;2023-04-12T07:07:12;90640.81;;;11.32;55.91
46778;BME280;32536;47.128;8.746;2023-04-12T07:09:38;90646.84;;;11.36;56.43
46778;BME280;32536;47.128;8.746;2023-04-12T07:12:05;90650.16;;;11.41;56.70
46778;BME280;32536;47.128;8.746;2023-04-12T07:14:32;90653.44;;;11.45;56.03
46778;BME280;32536;47.128;8.746;2023-04-12T07:16:59;90647.22;;;11.48;56.43
46778;BME280;32536;47.128;8.746;2023-04-12T07:19:25;90657.72;;;11.55;56.45
46778;BME280;32536;47.128;8.746;2023-04-12T07:21:54;90653.75;;;11.60;55.96
46778;BME280;32536;47.128;8.746;2023-04-12T07:24:20;90642.13;;;11.63;56.16
46778;BME280;32536;47.128;8.746;2023-04-12T07:26:47;90657.38;;;11.66;56.66
46778;BME280;32536;47.128;8.746;2023-04-12T07:29:14;90655.63;;;11.72;56.43
46778;BME280;32536;47.128;8.746;2023-04-12T07:31:42;90664.28;;;11.76;56.52
46778;BME280;32536;47.128;8.746;2023-04-12T07:34:09;90658.59;;;11.74;56.17
46778;BME280;32536;47.128;8.746;2023-04-12T07:36:36;90652.19;;;11.72;55.66
46778;BME280;32536;47.128;8.746;2023-04-12T07:39:03;90654.13;;;11.71;56.46
46778;BME280;32536;47.128;8.746;2023-04-12T07:41:30;90654.44;;;11.73;56.00
46778;BME280;32536;47.128;8.746;2023-04-12T07:43:56;90649.50;;;11.72;56.24
46778;BME280;32536;47.128;8.746;2023-04-12T07:46:23;90637.41;;;11.67;56.88
46778;BME280;32536;47.128;8.746;2023-04-12T07:48:50;90635.59;;;11.64;56.60
46778;BME280;32536;47.128;8.746;2023-04-12T07:51:17;90632.91;;;11.64;56.62
46778;BME280;32536;47.128;8.746;2023-04-12T07:53:44;90619.94;;;11.62;56.66
46778;BME280;32536;47.128;8.746;2023-04-12T07:56:13;90612.63;;;11.63;56.83
46778;BME280;32536;47.128;8.746;2023-04-12T07:58:40;90614.63;;;11.72;56.69
46778;BME280;32536;47.128;8.746;2023-04-12T08:01:07;90622.31;;;11.82;57.11
46778;BME280;32536;47.128;8.746;2023-04-12T08:03:36;90631.03;;;11.96;56.89
46778;BME280;32536;47.128;8.746;2023-04-12T08:06:03;90618.34;;;12.09;57.11
46778;BME280;32536;47.128;8.746;2023-04-12T08:08:30;90609.75;;;12.24;57.04
46778;BME280;32536;47.128;8.746;2023-04-12T08:10:57;90608.47;;;12.38;57.11
46778;BME280;32536;47.128;8.746;2023-04-12T08:13:23;90593.91;;;12.48;56.74
46778;BME280;32536;47.128;8.746;2023-04-12T08:15:50;90587.38;;;12.58;56.54
46778;BME280;32536;47.128;8.746;2023-04-12T08:18:17;90573.25;;;12.67;56.87
46778;BME280;32536;47.128;8.746;2023-04-12T08:20:44;90562.81;;;12.78;56.92
46778;BME280;32536;47.128;8.746;2023-04-12T08:23:11;90561.22;;;12.90;57.00
46778;BME280;32536;47.128;8.746;2023-04-12T08:25:38;90557.66;;;13.03;56.48
46778;BME280;32536;47.128;8.746;2023-04-12T08:28:05;90560.19;;;13.16;55.99
46778;BME280;32536;47.128;8.746;2023-04-12T08:30:33;90565.44;;;13.28;55.48
46778;BME280;32536;47.128;8.746;2023-04-12T08:33:00;90569.34;;;13.37;54.88
46778;BME280;32536;47.128;8.746;2023-04-12T08:35:27;90578.19;;;13.47;55.11
46778;BME280;32536;47.128;8.746;2023-04-12T08:37:53;90583.56;;;13.56;54.97
46778;BME280;32536;47.128;8.746;2023-04-12T08:40:20;90586.88;;;13.60;54.23
46778;BME280;32536;47.128;8.746;2023-04-12T08:42:47;90577.72;;;13.67;54.66
46778;BME280;32536;47.128;8.746;2023-04-12T08:45:14;90577.59;;;13.70;53.93
46778;BME280;32536;47.128;8.746;2023-04-12T08:47:42;90571.00;;;13.71;52.36
46778;BME280;32536;47.128;8.746;2023-04-12T08:50:11;90564.41;;;13.82;52.26
46778;BME280;32536;47.128;8.746;2023-04-12T08:52:39;90561.13;;;13.87;52.62
46778;BME280;32536;47.128;8.746;2023-04-12T08:55:08;90560.97;;;13.90;52.46
46778;BME280;32536;47.128;8.746;2023-04-12T08:57:39;90552.28;;;13.96;51.74
46778;BME280;32536;47.128;8.746;2023-04-12T09:00:08;90548.25;;;14.00;52.29
46778;BME280;32536;47.128;8.746;2023-04-12T09:02:36;90544.94;;;14.05;52.01
46778;BME280;32536;47.128;8.746;2023-04-12T09:05:04;90540.59;;;14.08;51.63
46778;BME280;32536;47.128;8.746;2023-04-12T09:07:32;90554.97;;;14.05;51.08
46778;BME280;32536;47.128;8.746;2023-04-12T09:09:58;90553.63;;;14.00;50.56
46778;BME280;32536;47.128;8.746;2023-04-12T09:12:25;90558.56;;;14.02;50.22
46778;BME280;32536;47.128;8.746;2023-04-12T09:15:04;90551.81;;;13.97;46.27
46778;BME280;32536;47.128;8.746;2023-04-12T09:17:37;90545.66;;;14.06;50.26
46778;BME280;32536;47.128;8.746;2023-04-12T09:22:44;90547.31;;;14.03;48.67
46778;BME280;32536;47.128;8.746;2023-04-12T09:25:13;90546.44;;;14.06;49.35
46778;BME280;32536;47.128;8.746;2023-04-12T09:27:51;90548.81;;;14.04;43.31
46778;BME280;32536;47.128;8.746;2023-04-12T09:30:23;90544.63;;;14.13;49.87
46778;BME280;32536;47.128;8.746;2023-04-12T09:32:50;90534.16;;;14.15;49.26
46778;BME280;32536;47.128;8.746;2023-04-12T09:35:18;90533.53;;;14.20;49.53
46778;BME280;32536;47.128;8.746;2023-04-12T09:38:08;90530.53;;;14.18;43.91
46778;BME280;32536;47.128;8.746;2023-04-12T09:40:36;90528.72;;;14.24;47.80
46778;BME280;32536;47.128;8.746;2023-04-12T09:43:03;90540.44;;;14.12;47.10
46778;BME280;32536;47.128;8.746;2023-04-12T09:45:34;90543.59;;;14.10;46.43
46778;BME280;32536;47.128;8.746;2023-04-12T09:48:04;90548.50;;;14.21;47.42
46778;BME280;32536;47.128;8.746;2023-04-12T09:50:32;90548.94;;;14.19;44.83
46778;BME280;32536;47.128;8.746;2023-04-12T09:53:02;90543.13;;;14.12;40.57
46778;BME280;32536;47.128;8.746;2023-04-12T09:55:30;90548.50;;;14.21;46.51
46778;BME280;32536;47.128;8.746;2023-04-12T09:58:00;90546.22;;;14.19;41.69
46778;BME280;32536;47.128;8.746;2023-04-12T10:00:29;90539.81;;;14.17;44.33
46778;BME280;32536;47.128;8.746;2023-04-12T10:02:58;90542.81;;;14.19;44.83
46778;BME280;32536;47.128;8.746;2023-04-12T10:05:26;90543.22;;;14.27;45.64
46778;BME280;32536;47.128;8.746;2023-04-12T10:07:53;90532.59;;;14.32;46.07
46778;BME280;32536;47.128;8.746;2023-04-12T10:10:21;90530.91;;;14.44;47.00
46778;BME280;32536;47.128;8.746;2023-04-12T10:12:49;90534.34;;;14.45;46.04
46778;BME280;32536;47.128;8.746;2023-04-12T10:15:16;90537.59;;;14.49;45.67
46778;BME280;32536;47.128;8.746;2023-04-12T10:17:45;90519.34;;;14.53;44.96
46778;BME280;32536;47.128;8.746;2023-04-12T10:20:20;90527.25;;;14.56;45.33
46778;BME280;32536;47.128;8.746;2023-04-12T10:22:49;90531.41;;;14.67;45.95
46778;BME280;32536;47.128;8.746;2023-04-12T10:25:19;90545.00;;;14.82;46.22
46778;BME280;32536;47.128;8.746;2023-04-12T10:27:47;90543.16;;;14.88;46.01
46778;BME280;32536;47.128;8.746;2023-04-12T10:30:30;90542.06;;;14.95;45.30
46778;BME280;32536;47.128;8.746;2023-04-12T10:35:48;90538.78;;;14.91;38.05
46778;BME280;32536;47.128;8.746;2023-04-12T10:38:22;90529.94;;;14.90;42.73
46778;BME280;32536;47.128;8.746;2023-04-12T10:41:12;90538.50;;;14.88;38.80
46778;BME280;32536;47.128;8.746;2023-04-12T10:43:46;90531.56;;;14.97;44.49
46778;BME280;32536;47.128;8.746;2023-04-12T10:49:15;90540.91;;;15.11;44.93
46778;BME280;32536;47.128;8.746;2023-04-12T10:54:36;90553.66;;;15.34;46.12
46778;BME280;32536;47.128;8.746;2023-04-12T10:57:04;90554.94;;;15.39;45.78
46778;BME280;32536;47.128;8.746;2023-04-12T10:59:52;90560.81;;;15.37;41.18
46778;BME280;32536;47.128;8.746;2023-04-12T11:02:21;90559.31;;;15.36;44.00
46778;BME280;32536;47.128;8.746;2023-04-12T11:05:08;90562.59;;;15.41;41.00
46778;BME280;32536;47.128;8.746;2023-04-12T11:07:39;90552.94;;;15.49;45.12
46778;BME280;32536;47.128;8.746;2023-04-12T11:10:16;90532.78;;;15.59;45.00
46778;BME280;32536;47.128;8.746;2023-04-12T11:12:51;90549.16;;;15.71;45.48
46778;BME280;32536;47.128;8.746;2023-04-12T11:15:25;90544.91;;;15.79;45.79
46778;BME280;32536;47.128;8.746;2023-04-12T11:17:53;90538.69;;;15.88;46.54
46778;BME280;32536;47.128;8.746;2023-04-12T11:20:21;90540.47;;;15.91;46.25
46778;BME280;32536;47.128;8.746;2023-04-12T11:22:49;90547.63;;;15.94;46.50
46778;BME280;32536;47.128;8.746;2023-04-12T11:25:16;90528.56;;;15.97;46.65
46778;BME280;32536;47.128;8.746;2023-04-12T11:27:50;90536.41;;;15.95;42.64
46778;BME280;32536;47.128;8.746;2023-04-12T11:30:19;90538.16;;;15.98;46.38
46778;BME280;32536;47.128;8.746;2023-04-12T11:32:48;90531.25;;;15.97;45.74
46778;BME280;32536;47.128;8.746;2023-04-12T11:35:15;90545.97;;;15.96;45.36
46778;BME280;32536;47.128;8.746;2023-04-12T11:37:42;90541.31;;;15.97;45.51
46778;BME280;32536;47.128;8.746;2023-04-12T11:40:09;90533.78;;;16.01;46.05
46778;BME280;32536;47.128;8.746;2023-04-12T11:42:38;90536.41;;;15.95;44.72
46778;BME280;32536;47.128;8.746;2023-04-12T11:45:06;90529.00;;;15.81;44.42
46778;BME280;32536;47.128;8.746;2023-04-12T11:47:41;90542.56;;;15.72;43.84
46778;BME280;32536;47.128;8.746;2023-04-12T11:50:08;90535.84;;;15.67;44.92
46778;BME280;32536;47.128;8.746;2023-04-12T11:52:35;90541.34;;;15.73;45.71
46778;BME280;32536;47.128;8.746;2023-04-12T11:55:03;90533.81;;;15.77;45.66
46778;BME280;32536;47.128;8.746;2023-04-12T11:57:37;90530.19;;;15.80;46.26
46778;BME280;32536;47.128;8.746;2023-04-12T12:00:04;90537.69;;;15.85;46.39
46778;BME280;32536;47.128;8.746;2023-04-12T12:02:33;90526.69;;;15.89;46.15
46778;BME280;32536;47.128;8.746;2023-04-12T12:05:00;90532.19;;;15.94;46.83
46778;BME280;32536;47.128;8.746;2023-04-12T12:07:27;90527.34;;;15.98;46.74
46778;BME280;32536;47.128;8.746;2023-04-12T12:09:54;90536.75;;;16.03;46.64
46778;BME280;32536;47.128;8.746;2023-04-12T12:12:22;90526.25;;;16.05;46.86
46778;BME280;32536;47.128;8.746;2023-04-12T12:14:49;90529.69;;;16.06;46.39
46778;BME280;32536;47.128;8.746;2023-04-12T12:17:16;90531.34;;;16.03;45.95
46778;BME280;32536;47.128;8.746;2023-04-12T12:19:44;90530.34;;;16.00;45.75
46778;BME280;32536;47.128;8.746;2023-04-12T12:27:33;90537.09;;;15.81;43.22
46778;BME280;32536;47.128;8.746;2023-04-12T12:30:05;90542.34;;;15.84;45.70
46778;BME280;32536;47.128;8.746;2023-04-12T12:32:35;90543.38;;;15.87;46.49
46778;BME280;32536;47.128;8.746;2023-04-12T12:35:08;90534.97;;;15.85;43.77
46778;BME280;32536;47.128;8.746;2023-04-12T12:37:36;90550.53;;;15.90;46.44
46778;BME280;32536;47.128;8.746;2023-04-12T12:40:09;90558.91;;;15.92;46.08
46778;BME280;32536;47.128;8.746;2023-04-12T12:42:49;90565.81;;;15.93;45.96
46778;BME280;32536;47.128;8.746;2023-04-12T12:45:18;90561.91;;;15.94;46.46
46778;BME280;32536;47.128;8.746;2023-04-12T12:47:57;90568.97;;;15.92;46.81
46778;BME280;32536;47.128;8.746;2023-04-12T12:50:26;90560.59;;;15.90;46.98
46778;BME280;32536;47.128;8.746;2023-04-12T12:52:54;90556.28;;;15.83;46.89
46778;BME280;32536;47.128;8.746;2023-04-12T12:55:22;90556.91;;;15.78;47.10
46778;BME280;32536;47.128;8.746;2023-04-12T12:57:54;90553.91;;;15.76;46.61
46778;BME280;32536;47.128;8.746;2023-04-12T13:00:24;90557.38;;;15.76;47.13
46778;BME280;32536;47.128;8.746;2023-04-12T13:02:52;90556.63;;;15.76;47.19
46778;BME280;32536;47.128;8.746;2023-04-12T13:05:20;90543.88;;;15.76;47.48
46778;BME280;32536;47.128;8.746;2023-04-12T13:07:47;90536.97;;;15.75;47.45
46778;BME280;32536;47.128;8.746;2023-04-12T13:10:14;90539.22;;;15.77;47.28
46778;BME280;32536;47.128;8.746;2023-04-12T13:12:41;90538.94;;;15.75;47.14
46778;BME280;32536;47.128;8.746;2023-04-12T13:15:08;90542.09;;;15.73;47.63
46778;BME280;32536;47.128;8.746;2023-04-12T13:17:36;90531.75;;;15.72;47.13
46778;BME280;32536;47.128;8.746;2023-04-12T13:20:03;90535.78;;;15.76;47.48
46778;BME280;32536;47.128;8.746;2023-04-12T13:22:30;90521.81;;;15.78;47.39
46778;BME280;32536;47.128;8.746;2023-04-12T13:24:57;90525.91;;;15.73;47.30
46778;BME280;32536;47.128;8.746;2023-04-12T13:27:24;90532.78;;;15.74;47.45
46778;BME280;32536;47.128;8.746;2023-04-12T13:29:50;90532.31;;;15.76;47.44
46778;BME280;32536;47.128;8.746;2023-04-12T13:32:17;90529.06;;;15.72;46.86
46778;BME280;32536;47.128;8.746;2023-04-12T13:34:44;90528.28;;;15.56;46.71
46778;BME280;32536;47.128;8.746;2023-04-12T13:37:11;90522.63;;;15.54;47.04